Time;durP1;ratioP1;P1;durP2;ratioP2;P2;SDS_P1;SDS_P2;PMS_P1;PMS_P2;Temp;Humidity;BMP_temperature;BMP_pressure;BME280_temperature;BME280_humidity;BME280_pressure;Samples;Min_cycle;Max_cycle;Signal;HPM_P1;HPM_P2
2021/03/10 00:00:33;;;;;;;34.72;18.95;;;6.40;99.90;;;;;;5116786;28;20027;-70
2021/03/10 00:02:59;;;;;;;34.08;19.88;;;6.40;99.90;;;;;;5117652;28;20102;-70
2021/03/10 00:05:24;;;;;;;32.03;17.63;;;6.40;99.90;;;;;;5117579;28;20102;-70
2021/03/10 00:07:50;;;;;;;33.67;18.43;;;6.40;99.90;;;;;;5117660;28;20069;-70
2021/03/10 00:10:16;;;;;;;32.13;18.27;;;6.40;99.90;;;;;;5117972;28;20051;-71
2021/03/10 00:12:42;;;;;;;33.70;19.33;;;6.50;99.90;;;;;;5100030;28;20498;-70
2021/03/10 00:15:10;;;;;;;32.47;18.48;;;6.40;99.90;;;;;;5099332;28;20514;-70
2021/03/10 00:17:36;;;;;;;30.13;19.13;;;6.50;99.90;;;;;;5117790;28;20052;-71
2021/03/10 00:20:05;;;;;;;34.42;17.83;;;6.50;99.90;;;;;;5098522;28;20027;-71
2021/03/10 00:22:31;;;;;;;32.97;19.10;;;6.50;99.90;;;;;;5116499;28;20035;-70
2021/03/10 00:24:56;;;;;;;31.90;18.20;;;6.40;99.90;;;;;;5098326;28;20491;-70
2021/03/10 00:27:25;;;;;;;28.07;17.50;;;6.40;99.90;;;;;;5116493;28;20053;-70
2021/03/10 00:29:53;;;;;;;31.50;18.33;;;6.40;99.90;;;;;;5116256;28;20024;-70
2021/03/10 00:32:19;;;;;;;29.40;16.92;;;6.40;99.90;;;;;;5116243;28;20496;-71
2021/03/10 00:34:45;;;;;;;31.23;18.65;;;6.50;99.90;;;;;;5098247;28;20031;-71
2021/03/10 00:37:11;;;;;;;31.45;17.95;;;6.40;99.90;;;;;;5116230;28;20023;-71
2021/03/10 00:39:37;;;;;;;33.93;17.50;;;6.50;99.90;;;;;;5097739;28;20089;-71
2021/03/10 00:42:02;;;;;;;34.17;17.37;;;6.50;99.90;;;;;;5116201;28;20436;-71
2021/03/10 00:44:28;;;;;;;32.15;19.38;;;6.50;99.90;;;;;;5097659;28;20024;-71
2021/03/10 00:46:54;;;;;;;34.73;19.27;;;6.40;99.90;;;;;;5116089;28;20473;-70
2021/03/10 00:49:19;;;;;;;31.20;17.80;;;6.40;99.90;;;;;;5116164;28;20024;-70
2021/03/10 00:51:45;;;;;;;33.23;18.33;;;6.40;99.90;;;;;;5097772;28;20488;-71
2021/03/10 00:54:11;;;;;;;34.40;17.67;;;6.40;99.90;;;;;;5116111;28;20063;-71
2021/03/10 00:56:36;;;;;;;33.10;18.83;;;6.40;99.90;;;;;;5116041;28;20027;-71
2021/03/10 00:59:02;;;;;;;36.17;18.47;;;6.40;99.90;;;;;;5098662;28;20038;-70
2021/03/10 01:01:27;;;;;;;33.80;18.10;;;6.40;99.90;;;;;;5097698;28;20031;-71
2021/03/10 01:03:53;;;;;;;33.47;18.10;;;6.40;99.90;;;;;;5116592;28;20068;-70
2021/03/10 01:06:23;;;;;;;35.10;17.87;;;6.40;99.90;;;;;;5097915;28;20456;-71
2021/03/10 01:08:49;;;;;;;32.83;18.42;;;6.40;99.90;;;;;;5116100;28;20019;-70
2021/03/10 01:11:15;;;;;;;36.45;18.83;;;6.40;99.90;;;;;;5115797;28;20061;-70
2021/03/10 01:13:41;;;;;;;34.03;19.30;;;6.50;99.90;;;;;;5115609;28;20504;-70
2021/03/10 01:16:06;;;;;;;34.70;19.30;;;6.50;99.90;;;;;;5097308;28;20057;-71
2021/03/10 01:18:32;;;;;;;34.83;19.23;;;6.50;99.90;;;;;;5115609;28;20045;-70
2021/03/10 01:20:58;;;;;;;37.47;18.93;;;6.50;99.90;;;;;;5115482;28;20023;-70
2021/03/10 01:23:23;;;;;;;34.90;19.43;;;6.50;99.90;;;;;;5115555;28;20020;-70
2021/03/10 01:25:49;;;;;;;31.97;18.90;;;6.50;99.90;;;;;;5115337;28;20026;-70
2021/03/10 01:28:14;;;;;;;35.40;19.47;;;6.50;99.90;;;;;;5115382;28;20032;-71
2021/03/10 01:30:40;;;;;;;35.37;19.33;;;6.50;99.90;;;;;;5115596;28;20023;-70
2021/03/10 01:33:06;;;;;;;34.57;18.13;;;6.50;99.90;;;;;;5116918;28;20040;-71
2021/03/10 01:35:31;;;;;;;36.93;20.13;;;6.50;99.90;;;;;;5098829;28;20023;-70
2021/03/10 01:37:57;;;;;;;32.93;18.97;;;6.50;99.90;;;;;;5115363;28;20030;-70
2021/03/10 01:40:23;;;;;;;38.10;20.27;;;6.50;99.90;;;;;;5115163;28;20019;-71
2021/03/10 01:42:49;;;;;;;;;;;6.50;99.90;;;;;;5097408;28;20024;-71
2021/03/10 01:45:15;;;;;;;36.50;19.70;;;6.50;99.90;;;;;;5098139;28;19969;-70
2021/03/10 01:47:45;;;;;;;37.35;19.20;;;6.50;99.90;;;;;;5115234;28;20019;-71
2021/03/10 01:50:15;;;;;;;34.97;19.40;;;6.50;99.90;;;;;;5114818;28;20541;-70
2021/03/10 01:52:41;;;;;;;39.53;20.42;;;6.40;99.90;;;;;;5115659;28;20027;-70
2021/03/10 01:55:07;;;;;;;37.73;20.27;;;6.40;99.90;;;;;;5114332;28;20016;-71
2021/03/10 01:57:34;;;;;;;40.05;21.38;;;6.40;99.90;;;;;;5114550;28;20024;-69
2021/03/10 02:00:00;;;;;;;38.22;21.08;;;6.30;99.90;;;;;;5114647;28;20020;-71
2021/03/10 02:02:26;;;;;;;41.27;21.90;;;6.30;99.90;;;;;;5114611;28;20065;-71
2021/03/10 02:04:52;;;;;;;41.00;21.17;;;6.50;99.90;;;;;;5101341;28;20024;-71
2021/03/10 02:07:44;;;;;;;38.90;21.10;;;6.50;99.90;;;;;;5096204;28;20342;-71
2021/03/10 02:10:18;;;;;;;37.65;20.45;;;6.40;99.90;;;;;;5114513;28;20540;-70
2021/03/10 02:13:15;;;;;;;41.95;20.67;;;6.40;99.90;;;;;;5096227;28;20020;-70
2021/03/10 02:15:59;;;;;;;38.80;20.38;;;6.30;99.90;;;;;;5114543;28;20080;-70
2021/03/10 02:19:12;;;;;;;38.15;21.23;;;6.20;99.90;;;;;;5096052;28;20020;-71
2021/03/10 02:22:00;;;;;;;38.20;20.45;;;6.20;99.90;;;;;;5048592;28;20036;-70
2021/03/10 02:25:03;;;;;;;39.60;21.92;;;6.20;99.90;;;;;;5114384;28;20096;-70
2021/03/10 02:27:46;;;;;;;42.08;21.90;;;6.20;99.90;;;;;;5114198;28;20031;-69
2021/03/10 02:30:16;;;;;;;40.92;21.90;;;6.10;99.90;;;;;;5114051;28;20023;-71
2021/03/10 02:32:49;;;;;;;38.47;21.02;;;6.10;99.90;;;;;;5095910;28;20027;-70
2021/03/10 02:35:15;;;;;;;36.95;20.48;;;6.20;99.90;;;;;;5114400;28;20034;-70
2021/03/10 02:37:44;;;;;;;38.97;21.27;;;6.30;99.90;;;;;;5113972;28;20023;-70
2021/03/10 02:40:12;;;;;;;35.60;20.55;;;6.30;99.90;;;;;;5114148;28;20019;-71
2021/03/10 02:42:39;;;;;;;37.65;20.50;;;6.30;99.90;;;;;;5114087;28;20016;-71
2021/03/10 02:45:06;;;;;;;40.35;21.83;;;6.20;99.90;;;;;;5114333;28;20031;-71
2021/03/10 02:47:33;;;;;;;39.78;22.33;;;6.20;99.90;;;;;;5095495;28;20114;-71
2021/03/10 02:49:59;;;;;;;44.85;21.83;;;6.10;99.90;;;;;;5095613;28;20032;-71
2021/03/10 02:52:25;;;;;;;39.17;22.65;;;6.10;99.90;;;;;;5095572;28;20547;-70
2021/03/10 02:54:54;;;;;;;40.72;21.65;;;6.10;99.90;;;;;;5095366;28;20499;-70
2021/03/10 02:57:20;;;;;;;44.13;22.98;;;6.10;99.90;;;;;;5095143;28;20070;-69
2021/03/10 02:59:46;;;;;;;36.95;20.27;;;6.10;99.90;;;;;;5113678;28;20107;-71
2021/03/10 03:02:13;;;;;;;42.78;21.98;;;6.10;99.90;;;;;;5113448;28;20062;-70
2021/03/10 03:04:38;;;;;;;;;;;6.10;99.90;;;;;;5114062;28;20115;-70
2021/03/10 03:07:04;;;;;;;37.78;19.75;;;6.10;99.90;;;;;;5113430;28;19939;-70
2021/03/10 03:09:31;;;;;;;39.27;22.10;;;6.10;99.90;;;;;;5113832;28;20100;-69
2021/03/10 03:11:57;;;;;;;38.97;20.95;;;6.10;99.90;;;;;;5095086;28;20023;-70
2021/03/10 03:14:26;;;;;;;38.10;21.40;;;6.10;99.90;;;;;;5096511;28;20027;-70
2021/03/10 03:16:53;;;;;;;35.33;20.90;;;6.10;99.90;;;;;;5115160;28;20114;-71
2021/03/10 03:19:19;;;;;;;39.75;21.00;;;6.10;99.90;;;;;;5096403;28;20388;-70
2021/03/10 03:21:45;;;;;;;42.20;22.43;;;6.10;99.90;;;;;;5113487;28;20122;-70
2021/03/10 03:24:11;;;;;;;38.67;20.95;;;6.10;99.90;;;;;;5113388;28;20349;-70
2021/03/10 03:26:37;;;;;;;37.65;21.75;;;6.10;99.90;;;;;;5095193;28;20019;-70
2021/03/10 03:29:04;;;;;;;39.83;20.50;;;6.00;99.90;;;;;;5113590;28;20452;-70
2021/03/10 03:31:33;;;;;;;37.78;21.63;;;6.00;99.90;;;;;;5095026;28;20480;-70
2021/03/10 03:33:58;;;;;;;36.60;20.90;;;6.10;99.90;;;;;;5095194;28;20492;-69
2021/03/10 03:36:25;;;;;;;36.43;20.60;;;6.00;99.90;;;;;;5113560;28;20028;-71
2021/03/10 03:38:51;;;;;;;37.72;20.38;;;6.00;99.90;;;;;;5094957;28;20038;-71
2021/03/10 03:41:19;;;;;;;39.83;20.73;;;5.90;99.90;;;;;;5113171;28;20392;-71
2021/03/10 03:43:45;;;;;;;38.92;20.20;;;5.90;99.90;;;;;;5113254;28;20016;-71
2021/03/10 03:46:11;;;;;;;38.97;21.73;;;5.90;99.90;;;;;;5094864;28;20100;-71
2021/03/10 03:48:37;;;;;;;37.88;20.40;;;6.00;99.90;;;;;;5095207;28;20016;-70
2021/03/10 03:51:03;;;;;;;38.40;21.03;;;6.00;99.90;;;;;;5095302;28;20035;-70
2021/03/10 03:53:28;;;;;;;41.75;21.73;;;6.00;99.90;;;;;;5113350;28;20171;-69
2021/03/10 03:55:54;;;;;;;45.13;22.30;;;6.10;99.90;;;;;;5094994;28;20044;-70
2021/03/10 03:58:20;;;;;;;39.03;20.83;;;6.10;99.90;;;;;;5112868;28;20066;-70
2021/03/10 04:00:45;;;;;;;42.20;22.50;;;6.10;99.90;;;;;;5094633;28;20476;-71
2021/03/10 04:03:11;;;;;;;40.80;21.70;;;6.00;99.90;;;;;;5113105;28;20064;-71
2021/03/10 04:05:36;;;;;;;39.03;21.20;;;6.00;99.90;;;;;;5113886;28;20026;-71
2021/03/10 04:08:02;;;;;;;43.27;21.77;;;5.90;99.90;;;;;;5096201;28;20020;-71
2021/03/10 04:10:34;;;;;;;40.58;22.08;;;5.90;99.90;;;;;;5115286;28;20032;-71
2021/03/10 04:13:01;;;;;;;42.70;23.25;;;5.90;99.90;;;;;;5095964;28;20116;-70
2021/03/10 04:15:29;;;;;;;44.78;22.90;;;5.90;99.90;;;;;;5113842;28;20451;-70
2021/03/10 04:17:55;;;;;;;43.35;21.65;;;5.90;99.90;;;;;;5113294;28;20020;-70
2021/03/10 04:20:22;;;;;;;40.83;22.47;;;6.10;99.90;;;;;;5116813;28;20449;-70
2021/03/10 04:22:48;;;;;;;42.45;22.83;;;6.10;99.90;;;;;;5116899;28;20298;-70
2021/03/10 04:25:16;;;;;;;45.28;23.75;;;6.00;99.90;;;;;;5098336;28;20023;-71
2021/03/10 04:27:42;;;;;;;43.40;22.63;;;5.90;99.90;;;;;;5098006;28;20030;-71
2021/03/10 04:30:10;;;;;;;45.63;23.85;;;5.90;99.90;;;;;;5098096;28;20110;-71
2021/03/10 04:32:36;;;;;;;50.47;25.02;;;5.90;99.90;;;;;;5098289;28;20028;-71
2021/03/10 04:35:03;;;;;;;46.43;25.20;;;5.80;99.90;;;;;;5116419;28;20019;-70
2021/03/10 04:37:28;;;;;;;46.67;24.52;;;5.80;99.90;;;;;;5116598;28;20350;-71
2021/03/10 04:39:54;;;;;;;48.57;26.43;;;5.80;99.90;;;;;;5100523;28;20030;-71
2021/03/10 04:42:20;;;;;;;52.23;25.63;;;5.80;99.90;;;;;;5099403;28;20395;-70
2021/03/10 04:44:46;;;;;;;51.47;26.30;;;5.80;99.90;;;;;;5097750;28;20069;-70
2021/03/10 04:47:11;;;;;;;50.40;25.80;;;5.80;99.90;;;;;;5097751;28;20022;-71
2021/03/10 04:49:37;;;;;;;49.10;25.07;;;5.80;99.90;;;;;;5116064;28;20026;-71
2021/03/10 04:52:03;;;;;;;51.10;25.73;;;5.80;99.90;;;;;;5115913;28;20031;-71
2021/03/10 04:54:28;;;;;;;52.78;26.73;;;5.80;99.90;;;;;;5115869;28;20023;-71
2021/03/10 04:56:54;;;;;;;48.93;24.97;;;5.80;99.90;;;;;;5115585;28;20039;-71
2021/03/10 04:59:20;;;;;;;47.20;24.20;;;5.70;99.90;;;;;;5115697;28;20088;-70
2021/03/10 05:01:45;;;;;;;44.70;24.63;;;5.80;99.90;;;;;;5116083;28;20157;-70
2021/03/10 05:04:11;;;;;;;47.47;24.10;;;5.90;99.90;;;;;;5116142;28;20130;-71
2021/03/10 05:06:36;;;;;;;46.17;25.00;;;6.00;99.90;;;;;;5116341;28;20143;-71
2021/03/10 05:09:04;;;;;;;45.17;24.37;;;5.90;99.90;;;;;;5097541;28;20533;-70
2021/03/10 05:11:30;;;;;;;41.13;22.35;;;6.00;99.90;;;;;;5097691;28;20028;-69
2021/03/10 05:13:56;;;;;;;51.00;24.13;;;6.00;99.90;;;;;;5097320;28;20034;-70
2021/03/10 05:16:21;;;;;;;44.30;22.87;;;5.90;99.90;;;;;;5115487;28;20023;-70
2021/03/10 05:18:47;;;;;;;49.60;23.87;;;5.90;99.90;;;;;;5097882;28;20419;-70
2021/03/10 05:21:13;;;;;;;50.53;24.07;;;5.80;99.90;;;;;;5097124;28;20383;-70
2021/03/10 05:23:41;;;;;;;46.23;24.53;;;5.80;99.90;;;;;;5097405;28;20015;-70
2021/03/10 05:26:09;;;;;;;50.85;24.73;;;5.70;99.90;;;;;;5097126;28;20369;-70
2021/03/10 05:28:35;;;;;;;45.53;23.83;;;5.70;99.90;;;;;;5115762;28;20019;-70
2021/03/10 05:31:01;;;;;;;47.90;24.85;;;5.70;99.90;;;;;;5096162;28;20499;-70
2021/03/10 05:33:26;;;;;;;45.77;25.70;;;5.80;99.90;;;;;;5115492;28;20031;-71
2021/03/10 05:35:52;;;;;;;49.37;26.27;;;5.70;99.90;;;;;;5115306;28;20399;-71
2021/03/10 05:38:18;;;;;;;53.50;27.13;;;5.70;99.90;;;;;;5097806;28;20112;-70
2021/03/10 05:40:43;;;;;;;54.80;26.93;;;5.70;99.90;;;;;;5116585;28;20023;-70
2021/03/10 05:43:09;;;;;;;50.17;27.37;;;5.70;99.90;;;;;;5116652;28;20022;-70
2021/03/10 05:45:36;;;;;;;56.93;27.10;;;5.80;99.90;;;;;;5098267;28;20031;-71
2021/03/10 05:48:01;;;;;;;;;;;5.80;99.90;;;;;;5116769;28;20023;-70
2021/03/10 05:50:27;;;;;;;53.22;27.42;;;5.70;99.90;;;;;;5116665;28;20359;-71
2021/03/10 05:52:54;;;;;;;59.07;28.87;;;5.70;99.90;;;;;;5097496;28;20023;-70
2021/03/10 05:55:22;;;;;;;53.05;27.85;;;5.70;99.90;;;;;;5115538;28;20376;-70
2021/03/10 05:57:48;;;;;;;53.80;29.08;;;5.90;99.90;;;;;;5096242;28;20115;-70
2021/03/10 06:00:16;;;;;;;57.73;28.07;;;5.80;99.90;;;;;;5096282;28;20047;-70
2021/03/10 06:02:42;;;;;;;53.53;28.20;;;5.80;99.90;;;;;;5096258;28;20072;-69
2021/03/10 06:05:24;;;;;;;56.53;28.05;;;5.80;99.90;;;;;;5114586;28;20383;-70
2021/03/10 06:08:00;;;;;;;56.38;28.45;;;5.80;99.90;;;;;;5114465;28;20019;-69
2021/03/10 06:10:55;;;;;;;46.90;25.90;;;5.80;99.90;;;;;;5114545;28;20023;-69
2021/03/10 06:13:24;;;;;;;58.25;27.50;;;5.80;99.90;;;;;;5097277;28;20034;-70
2021/03/10 06:15:51;;;;;;;58.40;27.55;;;5.80;99.90;;;;;;5096313;28;20135;-68
2021/03/10 06:18:26;;;;;;;51.42;26.15;;;5.90;99.90;;;;;;5114233;28;20107;-68
2021/03/10 06:21:10;;;;;;;48.03;26.25;;;5.90;99.90;;;;;;5114429;28;20078;-69
2021/03/10 06:23:53;;;;;;;52.13;27.05;;;6.00;99.90;;;;;;5114503;28;20034;-73
2021/03/10 06:26:21;;;;;;;53.97;26.92;;;6.00;99.90;;;;;;5096062;28;20030;-69
2021/03/10 06:28:47;;;;;;;53.88;27.75;;;6.00;99.90;;;;;;5114680;28;20020;-70
2021/03/10 06:31:20;;;;;;;51.08;27.02;;;6.00;99.90;;;;;;5097110;28;20024;-68
2021/03/10 06:34:06;;;;;;;55.47;28.15;;;5.90;99.90;;;;;;5115236;28;20030;-66
2021/03/10 06:36:38;;;;;;;58.47;30.58;;;5.90;99.90;;;;;;5096260;28;20028;-68
2021/03/10 06:39:05;;;;;;;51.33;26.08;;;5.90;99.90;;;;;;5114467;28;20020;-68
2021/03/10 06:41:37;;;;;;;52.17;27.23;;;5.90;99.90;;;;;;5097080;28;20045;-68
2021/03/10 06:44:15;;;;;;;52.47;25.38;;;6.00;99.90;;;;;;5115310;28;20076;-67
2021/03/10 06:46:55;;;;;;;54.83;27.20;;;5.90;99.90;;;;;;5097217;28;20420;-70
2021/03/10 06:49:23;;;;;;;47.55;25.15;;;5.90;99.90;;;;;;5115323;28;20020;-72
2021/03/10 06:52:08;;;;;;;51.90;26.08;;;6.00;99.90;;;;;;5128427;28;20053;-70
2021/03/10 06:54:34;;;;;;;49.90;26.10;;;5.90;99.90;;;;;;5116099;28;20333;-70
2021/03/10 06:57:07;;;;;;;51.42;27.13;;;6.00;99.90;;;;;;5096924;28;20396;-68
2021/03/10 06:59:54;;;;;;;51.70;26.38;;;6.00;99.90;;;;;;5115199;28;20034;-70
2021/03/10 07:02:30;;;;;;;50.75;26.38;;;6.00;99.90;;;;;;5114459;28;20051;-68
2021/03/10 07:04:58;;;;;;;44.75;25.55;;;6.00;99.90;;;;;;5114080;28;20147;-69
2021/03/10 07:07:24;;;;;;;49.20;25.15;;;6.00;99.90;;;;;;5114464;28;20028;-71
2021/03/10 07:09:50;;;;;;;50.60;25.88;;;6.10;99.90;;;;;;5096315;28;20030;-72
2021/03/10 07:12:18;;;;;;;50.90;25.52;;;6.00;99.90;;;;;;5096349;28;20096;-71
2021/03/10 07:14:47;;;;;;;50.47;24.98;;;6.20;99.90;;;;;;5114293;28;20028;-70
2021/03/10 07:17:17;;;;;;;47.40;25.33;;;6.10;99.90;;;;;;5095795;28;20372;-71
2021/03/10 07:19:44;;;;;;;47.50;25.25;;;6.20;99.90;;;;;;5095775;28;20549;-70
2021/03/10 07:22:29;;;;;;;48.13;24.80;;;6.10;99.90;;;;;;5114208;28;20441;-70
2021/03/10 07:25:25;;;;;;;50.70;26.10;;;6.10;99.90;;;;;;5113973;28;20357;-71
2021/03/10 07:27:57;;;;;;;48.28;25.52;;;6.10;99.90;;;;;;5095950;28;20020;-72
2021/03/10 07:30:40;;;;;;;54.72;26.20;;;6.20;99.90;;;;;;5114513;28;20024;-69
2021/03/10 07:33:10;;;;;;;48.17;25.45;;;6.20;99.90;;;;;;5114760;28;20028;-69
2021/03/10 07:35:52;;;;;;;48.40;25.95;;;6.20;99.90;;;;;;5120413;28;20035;-70
2021/03/10 07:38:19;;;;;;;53.17;24.95;;;6.30;99.90;;;;;;5115714;28;20383;-71
2021/03/10 07:40:52;;;;;;;47.72;27.08;;;6.40;99.90;;;;;;5097974;28;20027;-69
2021/03/10 07:43:17;;;;;;;48.28;26.25;;;6.40;99.90;;;;;;5097250;28;20028;-71
2021/03/10 07:45:44;;;;;;;53.73;27.03;;;6.40;99.90;;;;;;5096796;28;20085;-72
2021/03/10 07:48:11;;;;;;;49.63;26.40;;;6.40;99.90;;;;;;5096435;28;20490;-66
2021/03/10 07:50:40;;;;;;;46.95;26.10;;;6.40;99.90;;;;;;5115868;28;20023;-70
2021/03/10 07:53:06;;;;;;;52.45;27.38;;;6.50;99.90;;;;;;5096339;28;20084;-70
2021/03/10 07:55:45;;;;;;;51.00;26.63;;;6.50;99.90;;;;;;5117625;28;20491;-69
2021/03/10 07:58:11;;;;;;;48.00;26.27;;;6.60;99.90;;;;;;5117171;28;20046;-67
2021/03/10 08:00:38;;;;;;;52.17;26.80;;;6.60;99.90;;;;;;5117252;28;20024;-68
2021/03/10 08:03:04;;;;;;;50.50;26.75;;;6.70;99.90;;;;;;5117397;28;20024;-68
2021/03/10 08:05:30;;;;;;;47.67;25.60;;;6.80;99.90;;;;;;5117372;28;20024;-67
2021/03/10 08:08:06;;;;;;;49.78;26.58;;;6.90;99.90;;;;;;5116834;28;20442;-66
2021/03/10 08:10:32;;;;;;;42.30;25.13;;;7.10;99.90;;;;;;5098641;28;20020;-68
2021/03/10 08:12:58;;;;;;;47.30;27.00;;;7.20;99.90;;;;;;5117032;28;20030;-67
2021/03/10 08:15:24;;;;;;;50.10;27.20;;;7.30;99.90;;;;;;5098426;28;20430;-67
2021/03/10 08:18:04;;;;;;;46.50;26.30;;;7.50;99.90;;;;;;5097852;28;20074;-66
2021/03/10 08:20:35;;;;;;;47.38;24.50;;;7.70;99.90;;;;;;5097974;28;20031;-66
2021/03/10 08:23:05;;;;;;;48.85;26.10;;;7.80;99.90;;;;;;5117423;28;20020;-66
2021/03/10 08:25:33;;;;;;;48.30;26.13;;;7.80;99.90;;;;;;5099138;28;20081;-67
2021/03/10 08:28:18;;;;;;;47.00;25.25;;;7.80;99.90;;;;;;5120597;28;20016;-65
2021/03/10 08:30:43;;;;;;;42.85;24.60;;;7.90;99.90;;;;;;5117825;28;20031;-66
2021/03/10 08:33:10;;;;;;;50.60;26.90;;;7.90;99.90;;;;;;5116492;28;20030;-64
2021/03/10 08:35:36;;;;;;;43.22;26.30;;;8.00;99.90;;;;;;5116413;28;20468;-66
2021/03/10 08:38:04;;;;;;;51.15;27.92;;;8.10;99.90;;;;;;5116800;28;20415;-67
2021/03/10 08:40:32;;;;;;;51.40;27.92;;;8.30;99.90;;;;;;5105723;28;20032;-68
2021/03/10 08:42:59;;;;;;;45.90;25.90;;;8.40;99.90;;;;;;5122989;28;20012;-69
2021/03/10 08:45:31;;;;;;;55.63;27.83;;;8.60;99.90;;;;;;5116356;28;20056;-69
2021/03/10 08:47:59;;;;;;;47.58;27.15;;;8.60;99.90;;;;;;5117300;28;20019;-68
2021/03/10 08:50:39;;;;;;;54.47;27.98;;;8.60;99.90;;;;;;5099891;28;20449;-68
2021/03/10 08:53:07;;;;;;;49.58;28.45;;;8.70;99.90;;;;;;5118160;28;20065;-67
2021/03/10 08:55:33;;;;;;;45.92;27.30;;;8.60;99.90;;;;;;5117670;28;20017;-68
2021/03/10 08:58:00;;;;;;;46.17;26.88;;;8.70;99.90;;;;;;5117624;28;20552;-69
2021/03/10 09:00:28;;;;;;;48.45;28.13;;;8.80;99.90;;;;;;5099405;28;20031;-71
2021/03/10 09:02:54;;;;;;;49.70;28.52;;;8.80;99.90;;;;;;5097850;28;20034;-71
2021/03/10 09:05:29;;;;;;;52.83;29.00;;;8.90;99.90;;;;;;5098270;28;20530;-71
2021/03/10 09:07:56;;;;;;;46.85;27.25;;;8.90;99.90;;;;;;5097911;28;20023;-70
2021/03/10 09:10:22;;;;;;;47.70;29.02;;;9.00;99.90;;;;;;5098040;28;20493;-70
2021/03/10 09:12:49;;;;;;;;;;;9.10;99.90;;;;;;5098375;28;20118;-71
2021/03/10 09:15:18;;;;;;;49.70;28.03;;;9.20;99.90;;;;;;5115889;28;19954;-70
2021/03/10 09:17:44;;;;;;;47.42;27.55;;;9.30;99.90;;;;;;5097346;28;20063;-69
2021/03/10 09:20:31;;;;;;;52.05;29.67;;;9.30;99.90;;;;;;5097358;28;20103;-68
2021/03/10 09:22:58;;;;;;;48.20;28.08;;;9.40;99.90;;;;;;5115852;28;20020;-67
2021/03/10 09:25:30;;;;;;;49.20;29.15;;;9.50;99.90;;;;;;5115512;28;20068;-67
2021/03/10 09:28:13;;;;;;;47.85;29.00;;;9.70;99.90;;;;;;5115323;28;20023;-68
2021/03/10 09:30:44;;;;;;;47.83;28.15;;;9.80;99.90;;;;;;5114841;28;20075;-67
2021/03/10 09:33:23;;;;;;;48.30;28.95;;;10.00;99.90;;;;;;5116948;28;20035;-69
2021/03/10 09:35:53;;;;;;;49.65;28.88;;;10.00;99.90;;;;;;5115251;28;20080;-66
2021/03/10 09:38:20;;;;;;;48.28;28.95;;;10.10;99.90;;;;;;5096399;28;20039;-67
2021/03/10 09:40:53;;;;;;;;;;;10.20;99.90;;;;;;5096828;28;20553;-66
2021/03/10 09:43:21;;;;;;;53.22;29.05;;;10.40;99.90;;;;;;5114818;28;19903;-70
2021/03/10 09:45:48;;;;;;;51.88;30.60;;;10.60;99.90;;;;;;5114706;28;20192;-70
2021/03/10 09:48:27;;;;;;;46.22;27.88;;;10.90;99.90;;;;;;5096272;28;20049;-65
2021/03/10 09:51:08;;;;;;;50.80;27.80;;;11.00;99.90;;;;;;5096670;28;20111;-69
2021/03/10 09:53:34;;;;;;;53.95;32.78;;;11.20;99.90;;;;;;5115589;28;20020;-71
2021/03/10 09:56:05;;;;;;;47.80;28.23;;;11.60;99.90;;;;;;5097461;28;20429;-70
2021/03/10 09:58:30;;;;;;;45.10;28.58;;;11.90;99.90;;;;;;5114632;28;20062;-70
2021/03/10 10:01:00;;;;;;;49.93;30.33;;;12.20;99.30;;;;;;5114868;28;20480;-69
2021/03/10 10:03:27;;;;;;;45.55;27.85;;;12.80;97.90;;;;;;5114871;28;20092;-69
2021/03/10 10:06:04;;;;;;;45.08;28.13;;;13.20;96.50;;;;;;5114774;28;20019;-71
2021/03/10 10:08:30;;;;;;;44.70;26.95;;;13.30;96.20;;;;;;5114377;28;20588;-67
2021/03/10 10:10:55;;;;;;;41.67;27.73;;;13.30;95.50;;;;;;5114285;28;20062;-67
2021/03/10 10:13:21;;;;;;;41.53;27.88;;;13.40;95.30;;;;;;5096052;28;20513;-68
2021/03/10 10:15:46;;;;;;;44.53;28.10;;;13.30;95.10;;;;;;5118275;28;20060;-66
2021/03/10 10:18:12;;;;;;;42.17;27.27;;;13.10;95.60;;;;;;5095383;28;20053;-69
2021/03/10 10:20:38;;;;;;;47.20;29.33;;;13.10;96.00;;;;;;5096063;28;20027;-69
2021/03/10 10:23:04;;;;;;;45.72;29.38;;;12.90;96.40;;;;;;5114609;28;20023;-69
2021/03/10 10:25:30;;;;;;;46.10;29.88;;;12.60;96.80;;;;;;5096220;28;20043;-68
2021/03/10 10:27:56;;;;;;;46.85;26.98;;;12.50;97.10;;;;;;5114190;28;20027;-66
2021/03/10 10:30:22;;;;;;;42.47;27.65;;;12.50;97.30;;;;;;5120679;28;20027;-67
2021/03/10 10:32:49;;;;;;;42.58;28.38;;;12.40;97.40;;;;;;5117585;28;20153;-66
2021/03/10 10:35:17;;;;;;;44.00;29.67;;;12.20;98.10;;;;;;5114342;28;20016;-66
2021/03/10 10:37:43;;;;;;;41.13;27.05;;;12.10;98.20;;;;;;5115017;28;20035;-66
2021/03/10 10:40:11;;;;;;;42.38;27.15;;;12.10;98.20;;;;;;5113938;28;20071;-66
2021/03/10 10:42:37;;;;;;;44.42;28.58;;;12.10;98.30;;;;;;5113608;28;20050;-67
2021/03/10 10:45:05;;;;;;;46.22;28.23;;;12.10;98.50;;;;;;5113901;28;20020;-67
2021/03/10 10:47:32;;;;;;;43.15;26.00;;;11.60;98.90;;;;;;5114407;28;20020;-70
2021/03/10 10:49:58;;;;;;;44.67;27.63;;;11.40;99.50;;;;;;5098551;28;20021;-68
2021/03/10 10:52:23;;;;;;;42.50;27.73;;;11.20;99.90;;;;;;5098265;28;20119;-68
2021/03/10 10:54:49;;;;;;;47.10;27.20;;;11.30;99.70;;;;;;5097911;28;20134;-69
2021/03/10 10:57:15;;;;;;;44.00;28.27;;;11.40;99.70;;;;;;5113902;28;20035;-70
2021/03/10 10:59:40;;;;;;;41.63;25.65;;;11.60;99.20;;;;;;5114141;28;20032;-66
2021/03/10 11:02:06;;;;;;;42.33;27.33;;;11.70;98.80;;;;;;5095421;28;20031;-65
2021/03/10 11:04:32;;;;;;;42.60;26.33;;;11.80;98.40;;;;;;5113930;28;20293;-66
2021/03/10 11:06:58;;;;;;;42.23;26.13;;;12.00;98.20;;;;;;5113679;28;20027;-65
2021/03/10 11:09:23;;;;;;;40.63;25.73;;;12.30;97.90;;;;;;5117188;28;20024;-65
2021/03/10 11:11:52;;;;;;;39.60;25.17;;;12.70;96.40;;;;;;5113500;28;20622;-65
2021/03/10 11:14:18;;;;;;;40.10;24.52;;;12.90;95.30;;;;;;5113757;28;20254;-68
2021/03/10 11:16:44;;;;;;;39.65;24.80;;;13.00;95.10;;;;;;5095425;28;20028;-66
2021/03/10 11:19:09;;;;;;;40.20;25.53;;;12.90;94.20;;;;;;5096068;28;20038;-66
2021/03/10 11:21:35;;;;;;;39.53;24.63;;;12.60;94.60;;;;;;5113403;28;20027;-66
2021/03/10 11:24:00;;;;;;;39.77;25.57;;;12.50;95.20;;;;;;5113866;28;20257;-66
2021/03/10 11:26:26;;;;;;;36.63;23.77;;;11.90;95.80;;;;;;5114161;28;20137;-65
2021/03/10 11:28:52;;;;;;;32.53;22.92;;;11.60;97.20;;;;;;5115143;28;20395;-65
2021/03/10 11:31:18;;;;;;;35.23;22.73;;;11.70;96.90;;;;;;5118087;28;20036;-67
2021/03/10 11:33:43;;;;;;;33.88;21.40;;;11.90;96.60;;;;;;5099167;28;20507;-66
2021/03/10 11:36:09;;;;;;;33.93;21.47;;;12.10;95.30;;;;;;5099183;28;20031;-66
2021/03/10 11:38:35;;;;;;;33.92;21.40;;;12.10;94.30;;;;;;5117409;28;20310;-66
2021/03/10 11:41:01;;;;;;;30.65;19.20;;;11.80;95.00;;;;;;5117521;28;20032;-66
2021/03/10 11:43:27;;;;;;;33.90;21.35;;;11.90;95.30;;;;;;5119192;28;20072;-65
2021/03/10 11:45:53;;;;;;;32.65;20.70;;;12.00;94.90;;;;;;5101890;28;20107;-67
2021/03/10 11:48:19;;;;;;;30.67;20.88;;;12.10;94.60;;;;;;5119960;28;20129;-66
2021/03/10 11:50:44;;;;;;;32.50;21.33;;;11.40;94.90;;;;;;5119912;28;20024;-66
2021/03/10 11:53:10;;;;;;;33.33;21.07;;;11.30;95.90;;;;;;5119071;28;20024;-66
2021/03/10 11:55:36;;;;;;;35.57;20.90;;;11.40;96.10;;;;;;5119278;28;20058;-67
2021/03/10 11:58:02;;;;;;;;;;;11.60;95.70;;;;;;5119351;28;20319;-65
2021/03/10 12:00:28;;;;;;;30.63;18.23;;;11.70;94.00;;;;;;5101656;28;20362;-66
2021/03/10 12:03:03;;;;;;;32.28;19.70;;;11.80;94.40;;;;;;5119895;28;20020;-67
2021/03/10 12:05:30;;;;;;;30.55;18.60;;;11.80;94.00;;;;;;5119171;28;20058;-69
2021/03/10 12:07:55;;;;;;;27.70;17.92;;;11.80;93.50;;;;;;5099966;28;20020;-65
2021/03/10 12:10:21;;;;;;;26.93;16.23;;;12.00;93.20;;;;;;5118142;28;20383;-70
2021/03/10 12:12:47;;;;;;;24.17;15.10;;;12.20;91.00;;;;;;5117942;28;20019;-71
2021/03/10 12:15:14;;;;;;;25.92;16.80;;;12.30;88.10;;;;;;5099284;28;20118;-70
2021/03/10 12:17:39;;;;;;;26.08;15.98;;;12.30;87.70;;;;;;5099334;28;20024;-70
2021/03/10 12:20:07;;;;;;;29.40;16.08;;;12.40;86.10;;;;;;5105565;28;20100;-68
2021/03/10 12:22:32;;;;;;;23.13;14.98;;;12.20;86.20;;;;;;5121020;28;20030;-69
2021/03/10 12:24:58;;;;;;;20.25;12.43;;;12.30;83.70;;;;;;5117980;28;20352;-68
2021/03/10 12:27:24;;;;;;;24.43;13.80;;;11.90;80.30;;;;;;5099040;28;20023;-69
2021/03/10 12:29:58;;;;;;;23.77;13.75;;;11.90;80.60;;;;;;5116957;28;20280;-70
2021/03/10 12:32:25;;;;;;;23.05;13.45;;;12.00;82.20;;;;;;5116449;28;20030;-68
2021/03/10 12:34:51;;;;;;;;;;;12.00;80.90;;;;;;5117329;28;20032;-68
2021/03/10 12:37:17;;;;;;;18.70;12.52;;;12.10;78.70;;;;;;5097663;28;19911;-68
2021/03/10 12:39:43;;;;;;;22.30;13.43;;;12.00;80.00;;;;;;5097325;28;20388;-68
2021/03/10 12:42:09;;;;;;;14.98;10.40;;;12.20;79.50;;;;;;5098144;28;20035;-67